Time;durP1;ratioP1;P1;durP2;ratioP2;P2;SDS_P1;SDS_P2;PMS_P1;PMS_P2;Temp;Humidity;BMP_temperature;BMP_pressure;BME280_temperature;BME280_humidity;BME280_pressure;Samples;Min_cycle;Max_cycle;Signal;HPM_P1;HPM_P2
2022/07/28 04:14:09;;;;;;;6.83;4.83;;;;;;;21.57;65.10;100277.44;5595365;31;231232;-88
2022/07/28 04:17:18;;;;;;;9.10;4.60;;;;;;;21.66;64.97;100280.06;5583437;31;33888;-88
2022/07/28 04:20:22;;;;;;;7.87;4.80;;;;;;;21.81;63.61;100277.75;5583460;32;34478;-90
2022/07/28 04:23:25;;;;;;;4.97;4.50;;;;;;;21.93;64.20;100282.94;5574023;31;32602;-88
2022/07/28 04:26:28;;;;;;;6.90;4.78;;;;;;;21.96;64.56;100271.81;5582769;31;33744;-88
2022/07/28 04:29:31;;;;;;;6.95;4.93;;;;;;;22.01;62.98;100274.03;5583624;32;33779;-88
2022/07/28 04:32:37;;;;;;;5.37;4.78;;;;;;;22.08;63.20;100273.28;5582000;31;32686;-88
2022/07/28 04:35:40;;;;;;;5.68;4.68;;;;;;;22.15;62.56;100280.75;5582745;32;34656;-88
2022/07/28 04:38:42;;;;;;;6.55;4.80;;;;;;;22.35;62.05;100285.00;5582704;32;34479;-88
2022/07/28 04:41:45;;;;;;;7.57;5.28;;;;;;;22.49;61.03;100282.75;5580279;32;34557;-88
2022/07/28 04:44:48;;;;;;;13.43;5.12;;;;;;;22.57;60.85;100281.97;5582699;32;33711;-88
2022/07/28 04:47:52;;;;;;;7.10;5.10;;;;;;;22.74;59.32;100280.25;5583835;32;33713;-88
2022/07/28 04:50:56;;;;;;;6.35;4.97;;;;;;;22.70;60.02;100276.16;5583963;32;32226;-88
2022/07/28 04:53:58;;;;;;;8.15;4.87;;;;;;;22.83;59.35;100278.44;5590722;31;34040;-87
2022/07/28 04:57:01;;;;;;;6.75;4.57;;;;;;;22.99;59.39;100286.66;5595626;31;33726;-87
2022/07/28 05:00:12;;;;;;;5.10;4.47;;;;;;;23.09;59.88;100283.00;5592557;32;33641;-87
2022/07/28 05:03:14;;;;;;;27.67;6.00;;;;;;;23.20;59.53;100289.97;5591643;32;32781;-87
2022/07/28 05:06:17;;;;;;;9.10;4.97;;;;;;;23.30;59.66;100285.28;5586004;31;33085;-90
2022/07/28 05:09:22;;;;;;;4.97;4.55;;;;;;;23.34;58.09;100286.72;5563448;32;34465;-89
2022/07/28 05:12:25;;;;;;;8.10;4.93;;;;;;;23.35;57.68;100290.25;5562999;32;35153;-89
2022/07/28 05:15:27;;;;;;;6.95;4.85;;;;;;;23.21;58.30;100288.97;5562412;32;32568;-88
2022/07/28 05:18:30;;;;;;;4.90;4.30;;;;;;;23.46;56.59;100294.50;5562919;32;33566;-88
2022/07/28 05:21:32;;;;;;;6.32;4.50;;;;;;;23.65;56.70;100307.81;5563768;32;34564;-88
2022/07/28 05:24:35;;;;;;;6.82;4.60;;;;;;;24.01;55.72;100303.12;5556123;32;35002;-88
2022/07/28 05:27:38;;;;;;;5.28;4.30;;;;;;;24.28;55.25;100310.16;5549959;32;34246;-88
2022/07/28 05:30:41;;;;;;;6.22;4.68;;;;;;;24.58;54.41;100304.22;5550117;32;34221;-89
2022/07/28 05:33:43;;;;;;;8.73;4.82;;;;;;;24.86;53.83;100312.88;5549690;32;35195;-88
2022/07/28 05:36:46;;;;;;;6.47;4.50;;;;;;;24.91;52.94;100312.34;5559833;32;34726;-88
2022/07/28 05:39:49;;;;;;;6.70;4.45;;;;;;;24.99;53.09;100316.94;5561322;32;33920;-88
2022/07/28 05:42:52;;;;;;;4.95;4.50;;;;;;;25.30;52.20;100318.87;5562045;32;34239;-88
2022/07/28 05:45:54;;;;;;;4.57;4.18;;;;;;;25.32;51.73;100322.25;5564360;32;33702;-89
2022/07/28 05:48:57;;;;;;;5.00;4.50;;;;;;;25.38;51.46;100320.69;5569038;32;34115;-88
2022/07/28 05:52:00;;;;;;;6.37;4.40;;;;;;;25.37;51.47;100327.16;5571744;32;33847;-88
2022/07/28 05:55:05;;;;;;;11.98;4.87;;;;;;;25.35;51.51;100327.34;5571387;32;34511;-88
2022/07/28 05:58:08;;;;;;;5.97;4.85;;;;;;;25.48;51.30;100340.34;5576946;32;34575;-89
2022/07/28 06:01:11;;;;;;;5.53;4.90;;;;;;;25.31;51.29;100334.12;5572977;32;34975;-88
2022/07/28 06:04:14;;;;;;;6.37;5.00;;;;;;;25.42;51.60;100328.34;5578123;32;34961;-87
2022/07/28 06:07:33;;;;;;;8.75;4.75;;;;;;;25.72;51.05;100335.00;5577044;32;35423;-88
2022/07/28 06:10:57;;;;;;;4.72;4.30;;;;;;;25.86;50.49;100344.28;5567314;32;35005;-88
2022/07/28 06:14:00;;;;;;;5.10;4.62;;;;;;;25.95;49.94;100345.94;5554679;32;33578;-89
2022/07/28 06:17:03;;;;;;;5.05;4.55;;;;;;;25.95;49.37;100354.09;5565703;32;32829;-87
2022/07/28 06:20:06;;;;;;;5.28;4.78;;;;;;;25.63;50.47;100353.22;5558306;32;34908;-87
2022/07/28 06:23:10;;;;;;;5.40;4.43;;;;;;;25.39;51.81;100353.09;5568993;26;34106;-88
2022/07/28 06:26:12;;;;;;;5.90;4.53;;;;;;;25.76;50.40;100345.37;5564220;32;34049;-89
2022/07/28 06:29:15;;;;;;;7.55;4.57;;;;;;;26.65;48.60;100354.16;5561544;32;34060;-88
2022/07/28 06:32:18;;;;;;;6.93;4.75;;;;;;;27.82;44.53;100348.34;5567120;32;34277;-89
2022/07/28 06:35:21;;;;;;;6.87;4.20;;;;;;;26.95;46.90;100361.56;5541325;32;32724;-88
2022/07/28 06:38:24;;;;;;;7.40;4.90;;;;;;;27.18;46.43;100353.31;5568934;32;33789;-88
2022/07/28 06:41:27;;;;;;;7.00;4.80;;;;;;;27.04;46.21;100358.56;5569247;32;34064;-88
2022/07/28 06:44:30;;;;;;;8.18;5.03;;;;;;;27.53;44.50;100358.19;5566346;32;34342;-88
2022/07/28 06:47:53;;;;;;;5.80;5.03;;;;;;;28.03;44.17;100360.31;5566264;26;34218;-89
2022/07/28 06:50:58;;;;;;;8.07;4.90;;;;;;;28.31;43.07;100359.59;5583333;26;33994;-89
2022/07/28 06:54:01;;;;;;;5.82;4.72;;;;;;;28.04;42.08;100367.44;5505859;32;33582;-89
2022/07/28 06:57:12;;;;;;;8.38;4.60;;;;;;;28.24;42.59;100368.56;5517741;32;33896;-89
2022/07/28 07:00:18;;;;;;;9.32;4.95;;;;;;;28.47;41.85;100375.69;5525783;32;33801;-88
2022/07/28 07:03:22;;;;;;;8.75;4.90;;;;;;;28.79;39.72;100369.88;5531180;32;33595;-90
2022/07/28 07:06:26;;;;;;;5.15;4.28;;;;;;;28.94;40.44;100364.38;5512490;32;34238;-88
2022/07/28 07:09:29;;;;;;;9.35;4.37;;;;;;;28.90;41.22;100360.34;5539551;32;34428;-88
2022/07/28 07:12:34;;;;;;;5.78;4.28;;;;;;;29.35;40.26;100359.19;5533522;32;34723;-88
2022/07/28 07:15:36;;;;;;;7.18;4.90;;;;;;;30.72;37.97;100368.50;5537186;32;34850;-88
2022/07/28 07:18:39;;;;;;;5.93;4.90;;;;;;;31.20;36.82;100362.75;5517787;32;33740;-89
2022/07/28 07:21:42;;;;;;;6.78;4.55;;;;;;;30.20;37.70;100358.09;5544966;32;33746;-88
2022/07/28 07:24:46;;;;;;;7.03;5.03;;;;;;;29.94;38.92;100363.25;5602679;26;35180;-89
2022/07/28 07:27:48;;;;;;;5.03;4.62;;;;;;;29.65;39.15;100364.38;5546834;32;35114;-89
2022/07/28 07:30:51;;;;;;;7.78;4.62;;;;;;;29.48;38.67;100359.28;5542417;32;36179;-87
2022/07/28 07:33:54;;;;;;;5.57;4.78;;;;;;;29.49;39.60;100362.84;5550028;32;33719;-88
2022/07/28 07:44:08;;;;;;;6.55;4.65;;;;;;;28.94;41.71;100367.09;5365782;26;20120;-88
2022/07/28 07:47:15;;;;;;;4.43;3.95;;;;;;;29.66;38.25;100360.62;5541145;26;34033;-90
2022/07/28 07:50:18;;;;;;;11.30;4.70;;;;;;;30.29;38.28;100367.78;5525835;32;32902;-89
2022/07/28 07:53:21;;;;;;;8.13;4.65;;;;;;;30.68;36.87;100365.34;5537314;32;34140;-87
2022/07/28 07:56:24;;;;;;;6.30;4.68;;;;;;;30.11;37.56;100363.75;5528920;32;33757;-89
2022/07/28 07:59:29;;;;;;;5.53;4.10;;;;;;;29.68;37.50;100364.00;5526424;32;31658;-89
2022/07/28 08:02:32;;;;;;;6.18;4.35;;;;;;;29.75;35.97;100358.56;5581031;26;34970;-89
2022/07/28 08:20:13;;;;;;;7.05;4.85;;;;;;;32.69;30.05;100364.84;5565693;26;20078;-90
2022/07/28 08:23:35;;;;;;;10.23;4.80;;;;;;;33.02;30.87;100360.09;5576166;26;34989;-90
2022/07/28 09:35:55;;;;;;;11.88;4.68;;;;;;;37.01;23.39;100327.12;1765023;26;20088;-88
2022/07/28 09:38:58;;;;;;;4.40;4.03;;;;;;;37.06;25.28;100331.87;5530445;32;33845;-88
2022/07/28 09:42:01;;;;;;;5.40;4.90;;;;;;;37.25;23.31;100326.88;5510338;32;33232;-88
2022/07/28 09:45:07;;;;;;;7.43;4.10;;;;;;;36.39;24.28;100318.69;5528110;32;34563;-89
2022/07/28 09:48:26;;;;;;;4.90;4.50;;;;;;;36.41;24.50;100321.19;5531892;32;34590;-88
2022/07/28 09:51:32;;;;;;;23.20;4.95;;;;;;;36.49;23.66;100323.53;5529413;32;35070;-91
2022/07/28 09:54:34;;;;;;;10.57;4.68;;;;;;;37.02;23.92;100323.25;5532398;32;34068;-91
2022/07/28 09:57:56;;;;;;;6.15;4.50;;;;;;;37.29;23.14;100317.00;5575020;26;34181;-87
2022/07/28 10:01:19;;;;;;;4.82;3.80;;;;;;;39.65;20.24;100316.66;5490267;32;33435;-88
2022/07/28 10:04:35;;;;;;;6.97;4.15;;;;;;;38.63;20.36;100315.88;5488860;32;34376;-88
2022/07/28 10:07:47;;;;;;;5.93;3.75;;;;;;;38.01;21.53;100308.66;5523017;27;33949;-88
2022/07/28 10:33:25;;;;;;;5.55;3.85;;;;;;;37.78;22.00;100295.16;3615171;26;20123;-88
2022/07/28 10:51:02;;;;;;;5.80;4.00;;;;;;;40.01;19.06;100280.66;4617808;26;20108;-89
2022/07/28 11:01:37;;;;;;;4.70;4.05;;;;;;;37.83;21.29;100278.59;2695986;26;20083;-91
2022/07/28 12:02:34;;;;;;;4.75;4.35;;;;;;;32.17;28.64;100247.81;3945364;30;20104;-89
2022/07/28 12:05:37;;;;;;;6.57;4.43;;;;;;;31.90;29.72;100239.78;5507727;32;34257;-88
2022/07/28 12:31:08;;;;;;;7.18;4.80;;;;;;;31.34;29.65;100225.75;833929;30;20391;-90
2022/07/28 12:34:12;;;;;;;4.90;4.50;;;;;;;31.60;29.05;100219.28;5510311;32;32275;-90
2022/07/28 12:37:16;;;;;;;6.97;4.60;;;;;;;32.50;28.41;100224.78;5512478;32;34228;-88
2022/07/28 12:40:19;;;;;;;6.90;5.10;;;;;;;32.41;28.94;100212.41;5494749;32;32968;-89
2022/07/28 12:43:29;;;;;;;7.18;4.72;;;;;;;32.11;28.88;100213.91;5499528;32;34492;-89
2022/07/28 12:46:32;;;;;;;6.82;4.68;;;;;;;32.24;28.77;100210.19;5524750;26;35840;-89
2022/07/28 12:49:36;;;;;;;5.10;4.60;;;;;;;32.25;29.07;100213.78;5511831;32;33626;-90
2022/07/28 12:56:17;;;;;;;5.68;4.72;;;;;;;32.75;28.39;100207.41;5559427;26;20343;-89
2022/07/28 13:02:59;;;;;;;5.97;4.70;;;;;;;32.47;28.17;100207.91;5505747;26;20097;-92
2022/07/28 13:06:09;;;;;;;8.95;4.62;;;;;;;31.89;28.35;100212.59;5487170;32;33933;-89
2022/07/28 13:09:21;;;;;;;6.47;4.72;;;;;;;31.35;30.15;100210.13;5494476;32;34080;-89
2022/07/28 13:12:25;;;;;;;7.55;4.70;;;;;;;31.46;29.95;100201.22;5496512;32;34776;-89
2022/07/28 13:15:28;;;;;;;7.57;5.00;;;;;;;31.19;30.96;100207.66;5498145;32;34031;-88
2022/07/28 13:18:41;;;;;;;5.40;4.90;;;;;;;31.24;31.35;100208.91;5492697;32;33830;-89
2022/07/28 13:21:45;;;;;;;5.12;4.50;;;;;;;31.51;30.60;100200.59;5506053;32;35294;-89
2022/07/28 13:25:01;;;;;;;7.32;4.93;;;;;;;31.77;28.89;100199.56;5503875;32;34152;-88
2022/07/28 13:28:05;;;;;;;8.80;4.87;;;;;;;32.03;28.65;100194.97;5487805;32;32993;-88
2022/07/28 13:31:08;;;;;;;11.32;5.15;;;;;;;32.38;28.62;100193.63;5578612;26;34115;-89
2022/07/28 13:37:53;;;;;;;7.60;4.75;;;;;;;32.70;28.23;100189.91;5516413;26;20093;-89
2022/07/28 13:40:59;;;;;;;6.65;5.30;;;;;;;32.17;29.38;100183.91;5496652;32;32635;-88
2022/07/28 13:51:22;;;;;;;6.37;4.90;;;;;;;30.99;30.53;100182.25;5524813;26;34266;-89
2022/07/28 13:54:25;;;;;;;6.95;4.93;;;;;;;31.34;30.52;100176.44;5512231;32;34170;-89
2022/07/28 13:57:29;;;;;;;6.35;4.30;;;;;;;30.98;30.75;100173.22;5511358;32;33695;-89
2022/07/28 14:00:32;;;;;;;6.80;4.80;;;;;;;31.04;30.49;100171.50;5511215;32;34336;-89
2022/07/28 14:03:35;;;;;;;5.75;5.15;;;;;;;30.91;30.64;100180.59;5497977;32;32597;-89
2022/07/28 14:06:58;;;;;;;4.90;4.50;;;;;;;30.33;31.27;100172.09;5497762;32;32001;-89
2022/07/28 14:10:02;;;;;;;6.05;4.28;;;;;;;30.43;31.14;100168.06;5564583;26;34130;-88
2022/07/28 14:13:08;;;;;;;7.10;4.60;;;;;;;30.71;31.14;100161.53;5503599;32;33440;-88
2022/07/28 14:16:12;;;;;;;5.93;4.70;;;;;;;30.69;31.81;100169.09;5569312;26;34135;-89
2022/07/28 14:19:16;;;;;;;7.80;5.00;;;;;;;30.74;30.70;100172.03;5504776;32;34715;-89
2022/07/28 14:26:09;;;;;;;11.25;4.47;;;;;;;30.73;30.76;100165.72;5524522;32;20096;-88
2022/07/28 14:29:32;;;;;;;9.93;4.65;;;;;;;30.36;31.80;100159.88;5513422;32;33898;-89
2022/07/28 14:32:42;;;;;;;5.37;4.80;;;;;;;30.58;31.41;100165.09;5516524;32;35190;-91
2022/07/28 14:35:45;;;;;;;8.00;4.93;;;;;;;30.65;31.58;100165.91;5510762;32;34132;-89
2022/07/28 14:38:47;;;;;;;6.75;5.07;;;;;;;30.69;31.07;100166.34;5511289;32;34495;-88
2022/07/28 14:41:55;;;;;;;6.75;4.93;;;;;;;30.88;31.53;100161.88;5511899;32;33641;-89
2022/07/28 14:45:01;;;;;;;16.85;4.80;;;;;;;31.24;30.50;100160.44;5514320;32;33824;-89
2022/07/28 14:48:04;;;;;;;5.85;4.68;;;;;;;30.88;31.95;100156.41;5498627;32;32672;-89
2022/07/28 14:51:09;;;;;;;7.20;4.82;;;;;;;30.84;32.35;100158.72;5498387;32;32864;-88
2022/07/28 14:54:12;;;;;;;4.82;4.43;;;;;;;30.84;31.41;100149.66;5501420;32;33156;-89
2022/07/28 14:57:18;;;;;;;9.10;4.68;;;;;;;30.78;31.60;100152.22;5499738;32;33350;-88
2022/07/28 15:00:24;;;;;;;9.70;4.70;;;;;;;30.33;33.44;100147.47;5500085;32;34831;-88
2022/07/28 15:03:28;;;;;;;6.68;4.80;;;;;;;30.34;32.82;100145.56;5530580;32;33918;-88
2022/07/28 15:06:39;;;;;;;5.15;4.43;;;;;;;30.63;31.03;100148.87;5526863;26;33134;-88
2022/07/28 15:09:41;;;;;;;5.20;4.43;;;;;;;30.84;31.15;100136.84;5500395;32;32648;-88
2022/07/28 15:12:52;;;;;;;5.35;4.15;;;;;;;31.03;30.99;100137.78;5519620;32;35059;-88
2022/07/28 15:15:55;;;;;;;6.90;4.40;;;;;;;31.38;30.31;100139.31;5526020;32;34826;-88
